createdAt,value
2023-04-15T00:00:59.341Z,3.80
2023-04-15T00:03:26.023Z,3.30
2023-04-15T00:05:52.733Z,3.45
2023-04-15T00:08:20.391Z,3.42
2023-04-15T00:10:46.948Z,3.78
2023-04-15T00:13:13.472Z,3.97
2023-04-15T00:15:39.971Z,3.42
2023-04-15T00:18:07.947Z,4.40
2023-04-15T00:20:34.822Z,3.80
2023-04-15T00:23:02.547Z,3.50
2023-04-15T00:25:29.118Z,3.58
2023-04-15T00:27:55.600Z,3.70
2023-04-15T00:30:23.925Z,3.40
2023-04-15T00:32:50.786Z,4.22
2023-04-15T00:35:21.591Z,3.70
2023-04-15T00:37:48.294Z,3.92
2023-04-15T00:40:18.702Z,4.10
2023-04-15T00:42:45.501Z,3.65
2023-04-15T00:45:12.260Z,4.07
2023-04-15T00:47:41.455Z,4.25
2023-04-15T00:50:08.680Z,4.32
2023-04-15T00:52:35.116Z,3.97
2023-04-15T00:55:02.392Z,4.25
2023-04-15T00:57:30.109Z,4.22
2023-04-15T00:59:57.579Z,3.83
2023-04-15T01:02:24.574Z,3.67
2023-04-15T01:04:51.361Z,4.13
2023-04-15T01:07:18.004Z,4.65
2023-04-15T01:09:45.648Z,3.70
2023-04-15T01:12:14.181Z,4.35
2023-04-15T01:14:41.085Z,4.22
2023-04-15T01:17:07.507Z,3.60
2023-04-15T01:19:34.026Z,4.10
2023-04-15T01:22:00.529Z,4.18
2023-04-15T01:24:28.202Z,4.32
2023-04-15T01:26:54.855Z,3.97
2023-04-15T01:29:23.760Z,3.95
2023-04-15T01:31:52.563Z,4.28
2023-04-15T01:34:19.339Z,3.83
2023-04-15T01:36:46.295Z,3.90
2023-04-15T01:39:14.160Z,3.60
2023-04-15T01:41:42.240Z,3.65
2023-04-15T01:44:08.856Z,4.10
2023-04-15T01:46:37.136Z,3.60
2023-04-15T01:49:03.637Z,4.30
2023-04-15T01:51:32.224Z,3.80
2023-04-15T01:53:59.099Z,3.67
2023-04-15T01:56:25.627Z,3.40
2023-04-15T01:58:52.901Z,3.72
2023-04-15T02:01:20.099Z,3.95
2023-04-15T02:03:47.909Z,3.83
2023-04-15T02:06:15.282Z,3.72
2023-04-15T02:08:41.857Z,4.18
2023-04-15T02:11:08.410Z,4.20
2023-04-15T02:13:34.942Z,3.72
2023-04-15T02:16:01.500Z,3.92
2023-04-15T02:18:28.220Z,4.32
2023-04-15T02:20:56.345Z,3.78
2023-04-15T02:23:22.744Z,4.32
2023-04-15T02:25:54.061Z,3.63
2023-04-15T02:28:21.756Z,3.83
2023-04-15T02:30:52.675Z,3.95
2023-04-15T02:33:19.565Z,3.75
2023-04-15T02:35:46.459Z,3.35
2023-04-15T02:38:14.290Z,4.00
2023-04-15T02:40:41.062Z,3.70
2023-04-15T02:43:07.535Z,3.50
2023-04-15T02:45:34.874Z,3.60
2023-04-15T02:48:06.300Z,3.60
2023-04-15T02:50:33.338Z,3.50
2023-04-15T02:53:01.543Z,4.10
2023-04-15T02:55:29.177Z,3.97
2023-04-15T02:57:55.977Z,3.67
2023-04-15T03:00:25.102Z,3.63
2023-04-15T03:02:56.376Z,3.67
2023-04-15T03:05:26.152Z,3.95
2023-04-15T03:07:53.208Z,3.60
2023-04-15T03:10:21.241Z,3.53
2023-04-15T03:12:48.223Z,3.85
2023-04-15T03:15:19.353Z,3.78
2023-04-15T03:17:49.722Z,3.38
2023-04-15T03:20:16.867Z,3.47
2023-04-15T03:22:43.465Z,3.95
2023-04-15T03:25:10.112Z,3.72
2023-04-15T03:27:38.403Z,3.90
2023-04-15T03:30:06.554Z,3.95
2023-04-15T03:32:35.524Z,3.78
2023-04-15T03:35:02.020Z,4.18
2023-04-15T03:37:28.462Z,3.92
2023-04-15T03:39:54.942Z,4.35
2023-04-15T03:42:21.385Z,3.53
2023-04-15T03:44:47.840Z,4.32
2023-04-15T03:47:14.342Z,3.95
2023-04-15T03:49:41.394Z,3.97
2023-04-15T03:52:07.892Z,3.88
2023-04-15T03:54:34.276Z,4.43
2023-04-15T03:57:01.293Z,3.92
2023-04-15T03:59:27.706Z,4.50
2023-04-15T04:01:54.199Z,4.10
2023-04-15T04:04:21.073Z,4.05
2023-04-15T04:06:47.585Z,4.55
2023-04-15T04:09:14.028Z,4.13
2023-04-15T04:11:40.497Z,4.30
2023-04-15T04:14:06.930Z,4.47
2023-04-15T04:16:33.394Z,3.92
2023-04-15T04:19:00.029Z,3.55
2023-04-15T04:21:26.732Z,3.72
2023-04-15T04:23:53.206Z,3.53
2023-04-15T04:26:19.828Z,4.60
2023-04-15T04:28:46.521Z,4.45
2023-04-15T04:31:12.949Z,4.57
2023-04-15T04:33:39.682Z,3.95
2023-04-15T04:36:06.393Z,4.68
2023-04-15T04:38:32.852Z,4.57
2023-04-15T04:40:59.407Z,4.43
2023-04-15T04:43:26.043Z,3.97
2023-04-15T04:45:52.521Z,4.13
2023-04-15T04:48:19.791Z,4.03
2023-04-15T04:50:47.044Z,4.38
2023-04-15T04:53:13.602Z,4.53
2023-04-15T04:55:40.011Z,4.55
2023-04-15T04:58:06.837Z,4.68
2023-04-15T05:00:33.566Z,4.75
2023-04-15T05:03:00.624Z,5.20
2023-04-15T05:05:27.354Z,4.72
2023-04-15T05:07:53.781Z,4.22
2023-04-15T05:10:20.482Z,5.15
2023-04-15T05:12:47.074Z,4.28
2023-04-15T05:15:13.581Z,4.65
2023-04-15T05:17:40.209Z,4.35
2023-04-15T05:20:07.440Z,4.70
2023-04-15T05:22:34.041Z,4.78
2023-04-15T05:25:00.919Z,4.25
2023-04-15T05:27:27.381Z,4.38
2023-04-15T05:29:53.774Z,4.78
2023-04-15T05:32:20.711Z,5.00
2023-04-15T05:34:48.672Z,5.05
2023-04-15T05:37:15.578Z,4.60
2023-04-15T05:39:43.028Z,4.68
2023-04-15T05:42:09.497Z,4.95
2023-04-15T05:44:36.115Z,4.45
2023-04-15T05:47:04.595Z,4.57
2023-04-15T05:49:31.120Z,4.53
2023-04-15T05:51:57.643Z,4.30
2023-04-15T05:54:24.269Z,5.13
2023-04-15T05:56:50.950Z,4.40
2023-04-15T05:59:17.369Z,5.20
2023-04-15T06:01:45.172Z,4.72
2023-04-15T06:04:12.168Z,4.03
2023-04-15T06:06:38.691Z,5.15
2023-04-15T06:09:05.264Z,4.57
2023-04-15T06:11:31.827Z,4.40
2023-04-15T06:13:58.297Z,5.35
2023-04-15T06:16:24.906Z,6.15
2023-04-15T06:18:51.350Z,4.72
2023-04-15T06:21:17.888Z,4.82
2023-04-15T06:23:44.359Z,5.47
2023-04-15T06:26:11.468Z,5.13
2023-04-15T06:28:38.002Z,5.03
2023-04-15T06:31:04.629Z,5.95
2023-04-15T06:33:31.900Z,7.47
2023-04-15T06:35:58.378Z,6.55
2023-04-15T06:38:24.854Z,7.82
2023-04-15T06:40:51.508Z,7.20
2023-04-15T06:43:20.191Z,6.38
2023-04-15T06:45:47.191Z,5.97
2023-04-15T06:48:13.832Z,5.53
2023-04-15T06:50:40.628Z,4.97
2023-04-15T06:53:07.495Z,4.60
2023-04-15T06:55:34.350Z,4.90
2023-04-15T06:58:00.900Z,5.65
2023-04-15T07:00:28.590Z,5.05
2023-04-15T07:02:55.662Z,4.97
2023-04-15T07:05:22.176Z,5.00
2023-04-15T07:07:48.601Z,5.63
2023-04-15T07:10:15.868Z,4.82
2023-04-15T07:12:42.426Z,4.90
2023-04-15T07:15:09.124Z,5.03
2023-04-15T07:17:35.643Z,5.10
2023-04-15T07:20:02.558Z,5.40
2023-04-15T07:22:30.027Z,4.95
2023-04-15T07:24:56.602Z,5.78
2023-04-15T07:27:23.146Z,4.78
2023-04-15T07:29:51.414Z,5.50
2023-04-15T07:32:18.197Z,4.95
2023-04-15T07:34:44.790Z,5.28
2023-04-15T07:37:11.446Z,5.05
2023-04-15T07:39:38.201Z,4.93
2023-04-15T07:42:05.039Z,5.03
2023-04-15T07:44:31.608Z,4.80
2023-04-15T07:46:58.096Z,4.45
2023-04-15T07:49:26.650Z,4.25
2023-04-15T07:51:53.263Z,4.53
2023-04-15T07:54:19.780Z,4.18
2023-04-15T07:56:46.180Z,3.80
2023-04-15T07:59:13.039Z,3.72
2023-04-15T08:01:39.540Z,3.65
2023-04-15T08:04:06.218Z,3.58
2023-04-15T08:06:33.270Z,4.15
2023-04-15T08:09:00.341Z,3.67
2023-04-15T08:11:28.656Z,3.80
2023-04-15T08:13:55.314Z,4.05
2023-04-15T08:16:27.697Z,4.00
2023-04-15T08:18:55.991Z,3.75
2023-04-15T08:23:51.347Z,3.20
2023-04-15T08:26:18.836Z,3.40
2023-04-15T08:28:46.232Z,3.55
2023-04-15T08:31:14.793Z,3.10
2023-04-15T08:33:41.390Z,2.80
2023-04-15T08:36:08.483Z,2.80
2023-04-15T08:38:35.473Z,2.95
2023-04-15T08:41:07.308Z,3.33
2023-04-15T08:43:35.492Z,2.50
2023-04-15T08:48:29.637Z,3.10
2023-04-15T08:50:56.853Z,2.92
2023-04-15T08:53:24.674Z,3.25
2023-04-15T08:55:57.236Z,3.20
2023-04-15T08:58:24.600Z,3.08
2023-04-15T09:00:51.127Z,3.03
2023-04-15T09:03:17.873Z,3.22
2023-04-15T09:05:44.903Z,3.33
2023-04-15T09:08:11.900Z,3.50
2023-04-15T09:10:38.423Z,2.92
2023-04-15T09:13:05.744Z,2.95
2023-04-15T09:15:33.071Z,2.97
2023-04-15T09:17:59.548Z,2.88
2023-04-15T09:20:26.342Z,3.05
2023-04-15T09:22:52.877Z,2.55
2023-04-15T09:25:30.026Z,2.70
2023-04-15T09:28:01.629Z,2.30
2023-04-15T09:30:29.535Z,2.58
2023-04-15T09:33:02.382Z,2.30
2023-04-15T09:35:29.079Z,2.63
2023-04-15T09:38:07.384Z,2.67
2023-04-15T09:40:41.043Z,2.30
2023-04-15T09:43:09.690Z,2.63
2023-04-15T09:45:36.535Z,2.45
2023-04-15T09:48:23.448Z,2.75
2023-04-15T09:50:50.455Z,3.10
2023-04-15T09:53:19.132Z,2.70
2023-04-15T09:55:46.894Z,2.90
2023-04-15T09:58:24.536Z,2.58
2023-04-15T10:00:52.427Z,2.13
2023-04-15T10:03:24.780Z,2.40
2023-04-15T10:05:57.432Z,2.28
2023-04-15T10:08:26.060Z,2.65
2023-04-15T10:10:53.608Z,2.83
2023-04-15T10:13:24.804Z,2.00
2023-04-15T10:16:10.833Z,1.95
2023-04-15T10:18:42.901Z,1.85
2023-04-15T10:21:10.211Z,1.67
2023-04-15T10:23:37.978Z,1.88
2023-04-15T10:26:07.057Z,1.98
2023-04-15T10:28:33.511Z,2.20
2023-04-15T10:31:00.623Z,2.03
2023-04-15T10:33:28.832Z,2.33
2023-04-15T10:35:55.930Z,2.42
2023-04-15T10:38:43.180Z,2.08
2023-04-15T10:41:14.275Z,2.00
2023-04-15T10:43:52.859Z,2.03
2023-04-15T10:46:40.417Z,1.98
2023-04-15T10:49:25.856Z,2.10
2023-04-15T10:51:57.670Z,1.60
2023-04-15T10:54:27.205Z,1.90
2023-04-15T10:57:10.475Z,2.17
2023-04-15T10:59:39.089Z,1.95
2023-04-15T11:02:07.422Z,1.80
2023-04-15T11:07:41.958Z,1.77
2023-04-15T11:10:17.402Z,1.67
2023-04-15T11:12:50.811Z,1.88
2023-04-15T11:15:43.017Z,1.70
2023-04-15T11:18:18.492Z,1.50
2023-04-15T11:20:47.343Z,1.98
2023-04-15T11:23:19.561Z,1.80
2023-04-15T11:25:46.498Z,1.70
2023-04-15T11:28:13.544Z,1.80
2023-04-15T11:30:42.100Z,1.63
2023-04-15T11:33:10.347Z,1.67
2023-04-15T11:35:37.068Z,1.85
2023-04-15T11:38:10.292Z,1.70
2023-04-15T11:40:38.346Z,1.83
2023-04-15T11:43:13.780Z,1.65
2023-04-15T11:45:55.912Z,1.73
2023-04-15T11:48:28.229Z,1.80
2023-04-15T11:51:07.808Z,1.65
2023-04-15T11:53:42.598Z,1.65
2023-04-15T11:56:24.242Z,1.65
2023-04-15T11:58:59.352Z,1.73
2023-04-15T12:01:39.876Z,1.45
2023-04-15T12:04:20.173Z,1.75
2023-04-15T12:06:49.334Z,1.42
2023-04-15T12:09:16.666Z,1.48
2023-04-15T12:11:48.472Z,1.30
2023-04-15T12:14:24.419Z,1.20
2023-04-15T12:16:54.148Z,1.35
2023-04-15T12:19:31.805Z,1.40
2023-04-15T12:22:01.025Z,1.13
2023-04-15T12:24:28.355Z,1.10
2023-04-15T12:26:57.667Z,1.10
2023-04-15T12:29:29.040Z,0.90
2023-04-15T12:32:05.937Z,1.15
2023-04-15T12:34:58.173Z,1.70
2023-04-15T12:37:24.755Z,1.10
2023-04-15T12:39:52.236Z,1.55
2023-04-15T12:42:18.854Z,1.65
2023-04-15T12:44:46.172Z,1.33
2023-04-15T12:47:15.356Z,1.40
2023-04-15T12:49:41.996Z,1.35
2023-04-15T12:52:08.828Z,1.20
2023-04-15T12:54:36.055Z,1.40
2023-04-15T12:57:05.979Z,1.27
2023-04-15T12:59:33.206Z,1.50
2023-04-15T13:02:00.800Z,1.00
2023-04-15T13:04:30.525Z,1.10
2023-04-15T13:06:57.581Z,1.20
2023-04-15T13:09:24.060Z,1.30
2023-04-15T13:11:51.003Z,1.00
2023-04-15T13:14:17.694Z,1.02
2023-04-15T13:16:44.210Z,1.60
2023-04-15T13:19:10.682Z,1.20
2023-04-15T13:21:37.262Z,1.30
2023-04-15T13:24:04.831Z,1.50
2023-04-15T13:26:32.095Z,1.40
2023-04-15T13:28:59.759Z,1.27
2023-04-15T13:31:27.102Z,1.33
2023-04-15T13:33:53.562Z,1.23
2023-04-15T13:36:19.995Z,1.23
2023-04-15T13:38:47.124Z,1.00
2023-04-15T13:41:14.411Z,1.20
2023-04-15T13:43:41.469Z,1.60
2023-04-15T13:46:08.022Z,1.00
2023-04-15T13:48:34.479Z,0.90
2023-04-15T13:51:01.071Z,1.20
2023-04-15T13:53:37.631Z,1.00
2023-04-15T13:56:09.642Z,0.93
2023-04-15T13:58:37.391Z,1.10
2023-04-15T14:01:06.086Z,0.80
2023-04-15T14:03:33.667Z,0.80
2023-04-15T14:06:00.611Z,0.80
2023-04-15T14:08:27.040Z,0.75
2023-04-15T14:10:53.502Z,0.90
2023-04-15T14:13:19.945Z,0.80
2023-04-15T14:15:47.197Z,0.98
2023-04-15T14:18:13.658Z,1.00
2023-04-15T14:20:40.098Z,0.70
2023-04-15T14:23:06.753Z,1.10
2023-04-15T14:25:34.197Z,1.13
2023-04-15T14:28:01.666Z,1.35
2023-04-15T14:30:28.258Z,1.33
2023-04-15T14:32:54.761Z,1.08
2023-04-15T14:35:21.472Z,1.13
2023-04-15T14:37:47.889Z,1.10
2023-04-15T14:40:14.649Z,1.42
2023-04-15T14:42:41.114Z,1.10
2023-04-15T14:45:08.271Z,0.85
2023-04-15T14:47:34.827Z,1.00
2023-04-15T14:50:02.313Z,1.02
2023-04-15T14:52:28.868Z,0.95
2023-04-15T14:54:55.398Z,1.00
2023-04-15T14:57:21.833Z,0.70
2023-04-15T14:59:48.221Z,0.90
2023-04-15T15:02:17.290Z,0.95
2023-04-15T15:04:53.050Z,1.20
2023-04-15T15:07:19.637Z,1.40
2023-04-15T15:09:46.767Z,0.80
2023-04-15T15:12:13.297Z,0.70
2023-04-15T15:14:39.704Z,1.00
2023-04-15T15:17:06.305Z,0.80
2023-04-15T15:19:33.061Z,0.85
2023-04-15T15:21:59.477Z,0.88
2023-04-15T15:24:26.137Z,0.60
2023-04-15T15:26:52.638Z,0.80
2023-04-15T15:29:19.091Z,0.80
2023-04-15T15:31:45.623Z,0.80
2023-04-15T15:34:12.270Z,0.98
2023-04-15T15:36:38.701Z,0.52
2023-04-15T15:39:05.358Z,0.73
2023-04-15T15:41:33.267Z,0.90
2023-04-15T15:43:59.947Z,0.77
2023-04-15T15:46:28.256Z,1.02
2023-04-15T15:48:54.897Z,1.08
2023-04-15T15:51:21.331Z,1.27
2023-04-15T15:53:49.736Z,1.00
2023-04-15T15:56:16.319Z,1.58
2023-04-15T15:58:45.433Z,1.00
2023-04-15T16:01:12.238Z,1.10
2023-04-15T16:03:39.490Z,1.42
2023-04-15T16:06:06.028Z,1.20
2023-04-15T16:08:32.496Z,1.02
2023-04-15T16:10:58.985Z,0.98
2023-04-15T16:13:25.562Z,0.95
2023-04-15T16:15:52.005Z,0.95
2023-04-15T16:18:18.672Z,0.98
2023-04-15T16:20:45.200Z,1.20
2023-04-15T16:23:16.281Z,0.80
2023-04-15T16:25:44.402Z,1.63
2023-04-15T16:28:25.093Z,1.10
2023-04-15T16:30:52.708Z,0.93
2023-04-15T16:33:19.294Z,1.10
2023-04-15T16:35:45.783Z,1.00
2023-04-15T16:38:12.263Z,1.13
2023-04-15T16:40:38.789Z,1.40
2023-04-15T16:43:07.325Z,0.90
2023-04-15T16:45:33.974Z,1.00
2023-04-15T16:48:00.536Z,0.93
2023-04-15T16:50:27.229Z,1.23
2023-04-15T16:52:54.116Z,1.00
2023-04-15T16:55:20.615Z,1.05
2023-04-15T16:58:02.320Z,1.05
2023-04-15T17:00:31.477Z,0.80
2023-04-15T17:02:58.965Z,1.33
2023-04-15T17:05:27.519Z,1.00
2023-04-15T17:07:54.318Z,0.90
2023-04-15T17:10:20.996Z,0.77
2023-04-15T17:12:51.901Z,0.82
2023-04-15T17:15:19.642Z,1.10
2023-04-15T17:17:46.179Z,1.15
2023-04-15T17:20:12.630Z,1.17
2023-04-15T17:22:39.172Z,1.52
2023-04-15T17:25:06.124Z,1.95
2023-04-15T17:27:32.534Z,1.38
2023-04-15T17:29:59.032Z,1.98
2023-04-15T17:32:31.543Z,1.20
2023-04-15T17:34:58.223Z,1.40
2023-04-15T17:37:24.702Z,0.90
2023-04-15T17:39:52.058Z,1.60
2023-04-15T17:42:18.588Z,1.08
2023-04-15T17:44:45.822Z,1.40
2023-04-15T17:47:12.505Z,1.20
2023-04-15T17:49:39.017Z,0.70
2023-04-15T17:52:05.868Z,0.90
2023-04-15T17:54:32.436Z,1.15
2023-04-15T17:57:00.029Z,0.77
2023-04-15T17:59:27.619Z,1.00
2023-04-15T18:01:54.194Z,0.93
2023-04-15T18:04:21.754Z,0.90
2023-04-15T18:06:49.193Z,0.60
2023-04-15T18:09:15.690Z,1.20
2023-04-15T18:11:43.896Z,1.20
2023-04-15T18:14:11.320Z,1.20
2023-04-15T18:16:40.123Z,1.20
2023-04-15T18:19:06.679Z,0.77
2023-04-15T18:21:33.181Z,0.95
2023-04-15T18:23:59.674Z,0.57
2023-04-15T18:26:27.532Z,1.13
2023-04-15T18:28:55.002Z,0.50
2023-04-15T18:31:21.522Z,0.57
2023-04-15T18:33:48.082Z,0.70
2023-04-15T18:36:14.830Z,0.55
2023-04-15T18:38:41.406Z,0.50
2023-04-15T18:41:09.989Z,0.90
2023-04-15T18:43:36.689Z,0.60
2023-04-15T18:46:08.380Z,0.80
2023-04-15T18:48:34.906Z,0.73
2023-04-15T18:51:01.461Z,0.90
2023-04-15T18:53:28.084Z,1.10
2023-04-15T18:55:56.212Z,0.82
2023-04-15T18:58:22.666Z,1.13
2023-04-15T19:00:49.187Z,0.80
2023-04-15T19:03:15.897Z,0.63
2023-04-15T19:05:42.500Z,0.82
2023-04-15T19:08:09.076Z,0.85
2023-04-15T19:10:35.626Z,0.93
2023-04-15T19:13:04.232Z,0.57
2023-04-15T19:15:31.060Z,0.60
2023-04-15T19:17:57.475Z,0.85
2023-04-15T19:20:23.995Z,1.10
2023-04-15T19:22:50.705Z,1.25
2023-04-15T19:25:17.350Z,1.25
2023-04-15T19:27:43.834Z,0.95
2023-04-15T19:30:10.298Z,0.98
2023-04-15T19:32:36.835Z,0.82
2023-04-15T19:35:07.577Z,0.80
2023-04-15T19:37:35.273Z,0.57
2023-04-15T19:40:01.781Z,0.88
2023-04-15T19:42:28.433Z,2.10
2023-04-15T19:44:55.055Z,0.95
2023-04-15T19:47:22.442Z,0.82
2023-04-15T19:49:50.353Z,1.00
2023-04-15T19:52:18.654Z,0.73
2023-04-15T19:54:45.136Z,1.08
2023-04-15T19:57:11.746Z,0.90
2023-04-15T19:59:38.316Z,1.20
2023-04-15T20:02:07.136Z,0.82
2023-04-15T20:04:34.005Z,0.90
2023-04-15T20:07:00.573Z,0.70
2023-04-15T20:09:27.031Z,0.80
2023-04-15T20:12:10.040Z,1.05
2023-04-15T20:14:40.052Z,0.80
2023-04-15T20:17:06.502Z,0.95
2023-04-15T20:19:33.312Z,1.17
2023-04-15T20:21:59.766Z,0.77
2023-04-15T20:24:26.325Z,0.85
2023-04-15T20:26:52.734Z,0.80
2023-04-15T20:29:19.225Z,0.70
2023-04-15T20:31:45.820Z,1.08
2023-04-15T20:34:12.438Z,0.82
2023-04-15T20:36:38.951Z,0.80
2023-04-15T20:39:05.755Z,1.20
2023-04-15T20:41:32.389Z,1.15
2023-04-15T20:43:58.781Z,0.82
2023-04-15T20:46:27.318Z,1.33
2023-04-15T20:48:54.222Z,0.82
2023-04-15T20:51:20.796Z,1.40
2023-04-15T20:53:47.266Z,1.00
2023-04-15T20:56:13.716Z,1.00
2023-04-15T20:58:40.336Z,1.20
2023-04-15T21:01:06.814Z,1.10
2023-04-15T21:03:33.697Z,1.38
2023-04-15T21:06:00.414Z,1.30
2023-04-15T21:08:29.598Z,1.10
2023-04-15T21:10:56.801Z,1.40
2023-04-15T21:13:23.937Z,1.30
2023-04-15T21:15:53.319Z,1.40
2023-04-15T21:18:21.218Z,1.73
2023-04-15T21:20:56.491Z,1.30
2023-04-15T21:23:23.005Z,1.60
2023-04-15T21:25:49.411Z,1.10
2023-04-15T21:28:15.844Z,1.30
2023-04-15T21:30:42.338Z,1.17
2023-04-15T21:33:09.020Z,1.60
2023-04-15T21:35:35.620Z,1.65
2023-04-15T21:38:02.178Z,1.67
2023-04-15T21:40:29.647Z,2.60
2023-04-15T21:42:56.171Z,2.05
2023-04-15T21:45:22.627Z,1.27
2023-04-15T21:48:01.249Z,1.10
2023-04-15T21:50:36.760Z,1.02
2023-04-15T21:53:04.042Z,1.30
2023-04-15T21:55:30.540Z,1.13
2023-04-15T21:57:58.003Z,1.00
2023-04-15T22:00:24.796Z,1.67
2023-04-15T22:02:51.785Z,1.00
2023-04-15T22:05:18.383Z,1.00
2023-04-15T22:07:44.958Z,1.42
2023-04-15T22:10:11.669Z,1.30
2023-04-15T22:12:41.752Z,1.23
2023-04-15T22:15:08.676Z,1.42
2023-04-15T22:17:35.326Z,1.15
2023-04-15T22:20:02.321Z,1.30
2023-04-15T22:22:37.724Z,0.85
2023-04-15T22:25:11.111Z,1.30
2023-04-15T22:27:37.531Z,1.23
2023-04-15T22:30:04.966Z,1.63
2023-04-15T22:32:31.559Z,1.10
2023-04-15T22:34:58.070Z,1.30
2023-04-15T22:37:24.648Z,1.58
2023-04-15T22:39:51.772Z,1.40
2023-04-15T22:42:18.279Z,1.60
2023-04-15T22:44:44.686Z,1.58
2023-04-15T22:47:11.227Z,1.80
2023-04-15T22:49:37.737Z,1.80
2023-04-15T22:52:04.338Z,1.40
2023-04-15T22:54:31.121Z,1.10
2023-04-15T22:56:57.853Z,1.73
2023-04-15T22:59:24.495Z,1.48
2023-04-15T23:01:51.127Z,1.50
2023-04-15T23:04:27.464Z,1.88
2023-04-15T23:06:54.582Z,1.67
2023-04-15T23:09:21.450Z,1.38
2023-04-15T23:11:47.950Z,1.50
2023-04-15T23:14:14.347Z,1.63
2023-04-15T23:16:40.894Z,1.60
2023-04-15T23:19:07.958Z,1.70
2023-04-15T23:21:34.789Z,1.58
2023-04-15T23:24:01.711Z,1.52
2023-04-15T23:26:28.271Z,1.73
2023-04-15T23:28:55.661Z,1.42
2023-04-15T23:31:22.150Z,1.13
2023-04-15T23:33:48.613Z,1.48
2023-04-15T23:36:15.125Z,1.58
2023-04-15T23:38:42.056Z,1.65
2023-04-15T23:41:09.834Z,1.90
2023-04-15T23:43:36.561Z,2.00
2023-04-15T23:46:03.348Z,2.63
2023-04-15T23:48:30.084Z,1.85
2023-04-15T23:50:56.823Z,1.75
2023-04-15T23:53:23.591Z,1.80
2023-04-15T23:55:50.014Z,2.05
2023-04-15T23:58:16.433Z,1.98
